Time;durP1;ratioP1;P1;durP2;ratioP2;P2;SDS_P1;SDS_P2;PMS_P1;PMS_P2;Temp;Humidity;BMP_temperature;BMP_pressure;BME280_temperature;BME280_humidity;BME280_pressure;Samples;Min_cycle;Max_cycle;Signal;HPM_P1;HPM_P2
2021/08/22 00:01:30;;;;;;;9.80;7.30;;;;;;;15.21;75.43;98762.80;112636;1206;24078;-88
2021/08/22 00:03:57;;;;;;;14.90;8.00;;;;;;;15.20;75.37;98758.83;112857;1208;25081;-88
2021/08/22 00:06:24;;;;;;;14.80;8.40;;;;;;;15.21;75.62;98755.27;112774;1209;24065;-88
2021/08/22 00:08:51;;;;;;;9.50;8.10;;;;;;;15.21;75.72;98755.98;112832;1198;23871;-88
2021/08/22 00:11:19;;;;;;;12.00;8.20;;;;;;;15.22;75.72;98754.13;112710;1205;22458;-87
2021/08/22 00:13:46;;;;;;;11.10;8.40;;;;;;;15.23;75.72;98756.81;112642;1205;22465;-87
2021/08/22 00:16:13;;;;;;;10.70;7.40;;;;;;;15.26;75.91;98753.47;112723;1205;25297;-87
2021/08/22 00:18:40;;;;;;;10.20;8.20;;;;;;;15.28;75.98;98747.06;112679;1206;22719;-87
2021/08/22 00:21:08;;;;;;;11.80;8.40;;;;;;;15.28;75.88;98751.34;112656;1208;24160;-87
2021/08/22 00:23:35;;;;;;;13.60;8.60;;;;;;;15.27;76.21;98749.20;112638;1205;23143;-87
2021/08/22 00:26:05;;;;;;;14.10;9.70;;;;;;;15.28;76.20;98747.45;112739;1209;22453;-87
2021/08/22 00:28:38;;;;;;;10.00;7.70;;;;;;;15.31;76.31;98745.75;112774;1209;22463;-86
2021/08/22 00:31:13;;;;;;;12.30;8.10;;;;;;;15.33;76.48;98744.34;112825;1209;25103;-87
2021/08/22 00:33:41;;;;;;;11.20;8.50;;;;;;;15.34;76.41;98743.57;112721;1209;22460;-87
2021/08/22 00:36:08;;;;;;;13.80;9.00;;;;;;;15.34;76.47;98746.10;112885;1203;24052;-87
2021/08/22 00:38:35;;;;;;;11.60;8.00;;;;;;;15.31;76.62;98746.69;112639;1212;25318;-86
2021/08/22 00:41:03;;;;;;;11.10;7.20;;;;;;;15.20;76.03;98742.76;112827;1205;25141;-85
2021/08/22 00:43:31;;;;;;;10.70;7.60;;;;;;;15.10;76.18;98743.48;112701;1206;22442;-87
2021/08/22 00:45:58;;;;;;;13.00;8.10;;;;;;;15.05;76.52;98741.53;112955;1209;22738;-87
2021/08/22 00:48:30;;;;;;;10.90;8.20;;;;;;;15.03;76.69;98738.56;112767;1205;24074;-87
2021/08/22 00:50:59;;;;;;;11.40;8.40;;;;;;;15.02;76.90;98739.55;112871;1212;23782;-87
2021/08/22 00:53:27;;;;;;;10.20;7.80;;;;;;;15.01;77.06;98739.42;112789;1205;25355;-87
2021/08/22 00:55:57;;;;;;;11.60;7.80;;;;;;;15.01;77.31;98738.34;112976;1205;25084;-87
2021/08/22 00:58:38;;;;;;;11.40;8.20;;;;;;;15.03;77.34;98739.93;112692;1206;22684;-87
2021/08/22 01:01:24;;;;;;;13.60;8.00;;;;;;;15.06;77.41;98740.00;112760;1206;22712;-87
2021/08/22 01:04:20;;;;;;;10.90;8.00;;;;;;;15.09;77.54;98741.16;112819;1205;25206;-87
2021/08/22 01:07:11;;;;;;;9.90;7.90;;;;;;;15.12;77.34;98740.80;112512;1206;26525;-87
2021/08/22 01:09:48;;;;;;;11.00;7.20;;;;;;;15.06;76.75;98740.98;112892;1206;22446;-87
2021/08/22 01:12:27;;;;;;;11.80;8.00;;;;;;;15.04;76.85;98735.88;112710;1205;25328;-87
2021/08/22 01:15:02;;;;;;;13.30;8.80;;;;;;;15.04;76.92;98735.94;112432;1206;22458;-87
2021/08/22 01:17:48;;;;;;;12.30;8.90;;;;;;;15.05;77.10;98732.30;112781;1205;23800;-87
2021/08/22 01:20:33;;;;;;;13.90;9.10;;;;;;;15.05;77.19;98732.14;112615;1206;22453;-87
2021/08/22 01:23:03;;;;;;;12.30;7.80;;;;;;;15.02;77.20;98732.25;112753;1205;23156;-86
2021/08/22 01:25:33;;;;;;;12.10;8.20;;;;;;;14.99;77.26;98732.85;112752;1205;25107;-87
2021/08/22 01:28:01;;;;;;;11.30;8.30;;;;;;;14.98;77.10;98728.67;112908;1205;22446;-87
2021/08/22 01:30:40;;;;;;;13.40;8.70;;;;;;;14.97;77.39;98731.19;112706;1205;23936;-86
2021/08/22 01:33:24;;;;;;;13.30;9.40;;;;;;;14.97;77.60;98733.59;112781;1205;24170;-86
2021/08/22 01:36:05;;;;;;;13.80;8.60;;;;;;;14.95;77.41;98732.33;112725;1205;22480;-85
2021/08/22 01:38:36;;;;;;;13.40;8.10;;;;;;;14.92;77.44;98735.05;112765;1205;22814;-85
2021/08/22 01:41:05;;;;;;;11.60;8.30;;;;;;;14.91;77.54;98736.37;112879;1205;22441;-87
2021/08/22 01:43:47;;;;;;;13.90;9.10;;;;;;;14.94;77.54;98732.49;112737;1205;24058;-86
2021/08/22 01:46:35;;;;;;;12.30;9.20;;;;;;;14.95;77.50;98730.24;112809;1209;22476;-85
2021/08/22 01:49:09;;;;;;;13.70;10.40;;;;;;;14.96;77.40;98732.27;113027;1209;22517;-85
2021/08/22 01:51:37;;;;;;;15.30;9.70;;;;;;;14.92;77.39;98730.07;112843;1206;22729;-86
2021/08/22 01:54:08;;;;;;;14.00;9.50;;;;;;;14.92;77.41;98734.50;112684;1205;25063;-85
2021/08/22 01:56:41;;;;;;;14.40;9.70;;;;;;;14.90;77.50;98736.58;112926;1206;22517;-86
2021/08/22 01:59:09;;;;;;;13.30;9.70;;;;;;;14.88;77.63;98732.23;112793;1205;22541;-86
2021/08/22 02:01:38;;;;;;;13.50;10.00;;;;;;;14.87;77.67;98735.14;112627;1206;25144;-85
2021/08/22 02:04:11;;;;;;;;;;;;;;;14.88;78.01;98740.46;112624;1206;23762;-86
2021/08/22 02:06:49;;;;;;;14.80;9.30;;;;;;;14.85;77.79;98734.25;112779;1209;24056;-87
2021/08/22 02:09:39;;;;;;;14.20;9.80;;;;;;;14.84;78.13;98737.20;112826;1207;24094;-86
2021/08/22 02:12:16;;;;;;;14.90;9.80;;;;;;;14.84;78.10;98731.07;112696;1206;22887;-86
2021/08/22 02:15:13;;;;;;;11.90;9.80;;;;;;;14.87;78.16;98734.92;112743;1209;22449;-85
2021/08/22 02:18:18;;;;;;;12.10;8.50;;;;;;;14.86;78.13;98734.48;112699;1205;22460;-86
2021/08/22 02:20:49;;;;;;;11.30;8.00;;;;;;;14.79;77.79;98733.84;112690;1212;22753;-86
2021/08/22 02:23:17;;;;;;;13.70;9.50;;;;;;;14.74;77.79;98727.07;112751;1205;22460;-86
2021/08/22 02:25:44;;;;;;;12.80;9.70;;;;;;;14.74;78.13;98725.36;112774;1205;22565;-85
2021/08/22 02:28:11;;;;;;;14.50;9.60;;;;;;;14.75;78.12;98725.02;112665;1205;24070;-86
2021/08/22 02:30:38;;;;;;;13.60;9.60;;;;;;;14.75;78.23;98724.81;112797;1205;22559;-86
2021/08/22 02:33:07;;;;;;;12.20;9.40;;;;;;;14.74;78.10;98724.59;112905;1206;26463;-85
2021/08/22 02:35:35;;;;;;;14.90;10.40;;;;;;;14.74;78.12;98720.86;112848;1209;24057;-85
2021/08/22 02:38:16;;;;;;;13.40;9.70;;;;;;;14.71;78.28;98719.98;112801;1205;22945;-85
2021/08/22 02:40:43;;;;;;;16.30;10.60;;;;;;;14.70;78.19;98725.34;112869;1212;23001;-85
2021/08/22 02:43:24;;;;;;;14.80;9.60;;;;;;;14.66;78.34;98723.55;112693;1205;24152;-85
2021/08/22 02:45:51;;;;;;;13.20;8.80;;;;;;;14.65;78.23;98721.42;112532;1209;24108;-85
2021/08/22 02:48:18;;;;;;;13.80;10.20;;;;;;;14.65;78.11;98712.64;112930;1205;23972;-85
2021/08/22 02:50:44;;;;;;;13.70;10.80;;;;;;;14.65;78.19;98716.65;112774;1205;22550;-86
2021/08/22 02:53:11;;;;;;;13.60;10.60;;;;;;;14.63;78.58;98711.10;112600;1206;23794;-85
2021/08/22 02:55:38;;;;;;;13.50;9.70;;;;;;;14.60;78.44;98709.94;112969;1209;24038;-85
2021/08/22 02:58:20;;;;;;;13.50;9.20;;;;;;;14.58;78.46;98712.00;112697;1205;25136;-85
2021/08/22 03:01:00;;;;;;;15.90;9.80;;;;;;;14.58;78.56;98711.45;112770;1206;22513;-85
2021/08/22 03:03:41;;;;;;;13.30;9.70;;;;;;;14.62;78.89;98706.00;112641;1205;25181;-85
2021/08/22 03:06:08;;;;;;;15.20;10.30;;;;;;;14.65;78.89;98705.58;112853;1205;24194;-85
2021/08/22 03:08:35;;;;;;;13.40;10.30;;;;;;;14.65;78.84;98701.09;112739;1205;24100;-84
2021/08/22 03:11:17;;;;;;;14.30;9.30;;;;;;;14.64;78.70;98694.88;112788;1209;24090;-84
2021/08/22 03:13:48;;;;;;;13.80;10.10;;;;;;;14.63;78.56;98695.27;112688;1205;22450;-84
2021/08/22 03:16:15;;;;;;;16.40;11.20;;;;;;;14.63;78.54;98695.15;112850;1205;22872;-84
2021/08/22 03:18:56;;;;;;;15.20;11.20;;;;;;;14.61;78.64;98693.39;112592;1206;22571;-84
2021/08/22 03:21:23;;;;;;;14.70;10.50;;;;;;;14.57;78.68;98697.41;112518;1205;23051;-85
2021/08/22 03:23:50;;;;;;;13.80;10.10;;;;;;;14.53;78.84;98699.94;112474;1206;24206;-85
2021/08/22 03:26:17;;;;;;;16.30;11.10;;;;;;;14.51;78.84;98697.25;112508;1205;22462;-85
2021/08/22 03:28:58;;;;;;;15.50;11.80;;;;;;;14.51;78.93;98697.80;112345;1205;22497;-84
2021/08/22 03:31:25;;;;;;;16.30;12.00;;;;;;;14.52;79.16;98695.16;112369;1205;22461;-83
2021/08/22 03:33:51;;;;;;;16.00;10.70;;;;;;;14.51;79.23;98693.02;112580;1205;22790;-84
2021/08/22 03:36:18;;;;;;;14.90;9.80;;;;;;;14.50;79.18;98690.89;112443;1212;22463;-84
2021/08/22 03:38:46;;;;;;;16.60;10.80;;;;;;;14.49;79.54;98695.25;112583;1206;22463;-84
2021/08/22 03:41:26;;;;;;;15.50;11.20;;;;;;;14.47;79.37;98693.81;112484;1206;22464;-84
2021/08/22 03:44:09;;;;;;;19.00;10.50;;;;;;;14.43;79.39;98694.45;112414;1209;24144;-84
2021/08/22 03:46:36;;;;;;;14.10;11.00;;;;;;;14.41;79.40;98695.69;112470;1206;22463;-84
2021/08/22 03:49:03;;;;;;;14.40;10.40;;;;;;;14.39;79.49;98693.16;112448;1205;22454;-84
2021/08/22 03:51:29;;;;;;;13.30;9.90;;;;;;;14.37;79.27;98693.54;112443;1207;25039;-84
2021/08/22 03:53:56;;;;;;;14.00;10.10;;;;;;;14.35;79.30;98694.73;112678;1208;22473;-84
2021/08/22 03:56:23;;;;;;;15.90;10.40;;;;;;;14.34;79.36;98698.30;112506;1206;22449;-84
2021/08/22 03:58:50;;;;;;;15.90;10.80;;;;;;;14.32;79.09;98697.40;112378;1206;24154;-83
2021/08/22 04:01:31;;;;;;;14.60;10.90;;;;;;;14.31;79.26;98698.11;112473;1212;25068;-83
2021/08/22 04:04:01;;;;;;;15.20;11.60;;;;;;;14.29;79.24;98700.11;112475;1205;24168;-84
2021/08/22 04:06:38;;;;;;;12.40;10.60;;;;;;;14.28;79.49;98699.13;112373;1205;24418;-84
2021/08/22 04:09:07;;;;;;;15.10;11.60;;;;;;;14.28;79.62;98700.39;112363;1207;22468;-83
2021/08/22 04:11:54;;;;;;;18.40;12.20;;;;;;;14.29;79.87;98698.02;112369;1208;26286;-83
2021/08/22 04:14:21;;;;;;;16.00;12.00;;;;;;;14.32;80.04;98697.77;112489;1205;22458;-83
2021/08/22 04:16:49;;;;;;;16.10;12.10;;;;;;;14.35;80.00;98698.13;112459;1206;25171;-83
2021/08/22 04:19:30;;;;;;;17.50;12.90;;;;;;;14.37;79.77;98699.56;112561;1205;22444;-83
2021/08/22 04:22:11;;;;;;;17.70;12.40;;;;;;;14.37;79.88;98701.54;112335;1209;25214;-84
2021/08/22 04:24:52;;;;;;;18.00;13.50;;;;;;;14.39;80.06;98700.63;112358;1205;24045;-83
2021/08/22 04:27:19;;;;;;;18.60;13.20;;;;;;;14.43;80.30;98700.64;112419;1206;22479;-84
2021/08/22 04:29:46;;;;;;;16.60;13.40;;;;;;;14.45;80.37;98702.63;112443;1205;22447;-83
2021/08/22 04:32:13;;;;;;;15.80;11.50;;;;;;;14.48;80.31;98702.00;112450;1207;24057;-84
2021/08/22 04:34:39;;;;;;;18.10;11.80;;;;;;;14.52;80.26;98702.28;112360;1208;22485;-83
2021/08/22 04:37:06;;;;;;;19.40;14.40;;;;;;;14.56;80.21;98703.73;112434;1205;23010;-84
2021/08/22 04:39:33;;;;;;;18.10;14.20;;;;;;;14.58;80.15;98701.27;112409;1205;22552;-84
2021/08/22 04:42:00;;;;;;;17.10;12.40;;;;;;;14.61;80.30;98705.18;112568;1212;22613;-83
2021/08/22 04:44:27;;;;;;;16.30;11.40;;;;;;;14.63;80.31;98704.42;112519;1198;22466;-83
2021/08/22 04:47:08;;;;;;;16.00;12.70;;;;;;;14.66;80.16;98705.02;112592;1206;22897;-84
2021/08/22 04:49:35;;;;;;;16.20;12.20;;;;;;;14.68;80.29;98703.83;112406;1205;24183;-83
2021/08/22 04:52:02;;;;;;;18.40;12.40;;;;;;;14.67;80.38;98702.90;112549;1206;25128;-83
2021/08/22 04:54:43;;;;;;;15.70;11.90;;;;;;;14.60;80.27;98701.98;112460;1205;24251;-84
2021/08/22 04:57:10;;;;;;;13.40;11.00;;;;;;;14.56;80.40;98705.60;112696;1206;23121;-84
2021/08/22 04:59:37;;;;;;;16.50;12.40;;;;;;;14.57;80.90;98699.98;112395;1212;24109;-84
2021/08/22 05:02:05;;;;;;;16.30;12.10;;;;;;;14.63;81.01;98700.59;112578;1206;22466;-83
2021/08/22 05:04:32;;;;;;;16.40;11.80;;;;;;;14.70;81.27;98703.40;112414;1206;24197;-83
2021/08/22 05:07:13;;;;;;;18.30;12.30;;;;;;;14.77;81.38;98699.21;112424;1205;22784;-84
2021/08/22 05:09:40;;;;;;;18.30;12.40;;;;;;;14.84;81.29;98700.91;112612;1203;22445;-84
2021/08/22 05:12:21;;;;;;;18.80;14.00;;;;;;;14.92;81.37;98702.42;112358;1206;25041;-83
2021/08/22 05:14:48;;;;;;;23.60;17.10;;;;;;;14.96;81.54;98702.23;112349;1205;22465;-84
2021/08/22 05:17:15;;;;;;;21.50;17.20;;;;;;;15.03;81.60;98700.00;112416;1207;24060;-84
2021/08/22 05:19:56;;;;;;;24.10;16.40;;;;;;;15.10;81.67;98692.24;112781;1205;25071;-83
2021/08/22 05:22:36;;;;;;;22.20;16.20;;;;;;;15.18;81.98;98696.44;112434;1205;22475;-84
2021/08/22 05:25:17;;;;;;;27.50;18.50;;;;;;;15.27;82.11;98695.64;112607;1205;24027;-84
2021/08/22 05:27:44;;;;;;;27.00;18.90;;;;;;;15.33;81.85;98697.74;112402;1207;22480;-84
2021/08/22 05:30:11;;;;;;;24.70;19.60;;;;;;;15.39;81.82;98697.31;112495;1206;22454;-84
2021/08/22 05:32:38;;;;;;;26.70;19.70;;;;;;;15.45;81.89;98697.77;112505;1205;22709;-84
2021/08/22 05:35:19;;;;;;;28.90;20.00;;;;;;;15.51;81.59;98698.17;112524;1206;25068;-84
2021/08/22 05:38:00;;;;;;;24.70;16.70;;;;;;;15.58;81.74;98695.81;112474;1205;22466;-84
2021/08/22 05:40:27;;;;;;;22.50;16.70;;;;;;;15.66;81.57;98696.11;112775;1206;22974;-84
2021/08/22 05:43:07;;;;;;;23.90;17.00;;;;;;;15.77;81.81;98693.68;112736;1205;22465;-84
2021/08/22 05:45:48;;;;;;;28.00;19.80;;;;;;;15.90;81.73;98696.16;112779;1206;25122;-84
2021/08/22 05:48:15;;;;;;;25.90;18.90;;;;;;;15.99;81.79;98696.83;112666;1205;22501;-84
2021/08/22 05:50:56;;;;;;;27.60;19.90;;;;;;;16.11;81.69;98701.70;112659;1212;22457;-84
2021/08/22 05:53:41;;;;;;;27.50;20.90;;;;;;;16.23;81.29;98702.63;112652;1205;24922;-84
2021/08/22 05:56:09;;;;;;;33.50;23.70;;;;;;;16.31;81.19;98697.19;112720;1205;23546;-84
2021/08/22 05:58:36;;;;;;;32.90;24.60;;;;;;;16.36;80.82;98691.13;112687;1206;22450;-84
2021/08/22 06:01:04;;;;;;;35.50;24.70;;;;;;;16.40;80.57;98685.52;112857;1206;22565;-83
2021/08/22 06:03:32;;;;;;;28.50;18.70;;;;;;;16.47;80.35;98686.16;112645;1205;22474;-84
2021/08/22 06:05:59;;;;;;;23.70;17.00;;;;;;;16.57;79.96;98686.52;112961;1199;24066;-84
2021/08/22 06:08:39;;;;;;;20.00;16.10;;;;;;;16.64;79.55;98686.67;112508;1206;22457;-84
2021/08/22 06:11:21;;;;;;;23.50;17.70;;;;;;;16.72;79.89;98684.55;112618;1205;25192;-84
2021/08/22 06:14:02;;;;;;;18.40;15.30;;;;;;;16.78;79.76;98684.65;112706;1205;22479;-84
2021/08/22 06:16:29;;;;;;;16.80;14.40;;;;;;;16.86;79.46;98686.41;112679;1212;22453;-83
2021/08/22 06:19:09;;;;;;;18.10;15.90;;;;;;;16.94;78.99;98687.00;112717;1205;22457;-84
2021/08/22 06:21:38;;;;;;;19.40;15.30;;;;;;;17.02;79.05;98681.89;112716;1201;24108;-84
2021/08/22 06:24:05;;;;;;;22.70;17.40;;;;;;;17.13;79.09;98681.90;112652;1205;22450;-84
2021/08/22 06:26:46;;;;;;;19.30;16.40;;;;;;;17.23;78.78;98681.02;112795;1205;24327;-84
2021/08/22 06:29:27;;;;;;;22.10;15.70;;;;;;;17.31;78.66;98680.82;112813;1205;22469;-84
2021/08/22 06:31:54;;;;;;;18.00;14.30;;;;;;;17.39;78.53;98684.46;112620;1205;22464;-84
2021/08/22 06:34:35;;;;;;;18.40;15.70;;;;;;;17.49;78.32;98685.13;112649;1212;24061;-85
2021/08/22 06:37:16;;;;;;;17.90;15.40;;;;;;;17.56;77.89;98681.60;112684;1205;24058;-84
2021/08/22 06:39:58;;;;;;;20.70;15.40;;;;;;;17.62;77.89;98677.10;112791;1205;22568;-85
2021/08/22 06:42:27;;;;;;;20.30;15.90;;;;;;;17.71;77.92;98676.54;112639;1205;22446;-85
2021/08/22 06:45:08;;;;;;;18.50;15.50;;;;;;;17.81;77.72;98678.23;112666;1204;22446;-84
2021/08/22 06:47:53;;;;;;;18.30;14.50;;;;;;;17.90;77.50;98677.59;112627;1206;22635;-84
2021/08/22 06:50:23;;;;;;;21.90;14.20;;;;;;;17.98;77.05;98676.31;112891;1205;23487;-85
2021/08/22 06:53:04;;;;;;;17.10;15.30;;;;;;;18.05;76.79;98673.88;112593;1206;22450;-85
2021/08/22 06:55:45;;;;;;;20.10;15.80;;;;;;;18.12;76.63;98675.91;112650;1206;24083;-84
2021/08/22 06:58:12;;;;;;;17.50;15.50;;;;;;;18.19;76.78;98674.85;112715;1205;22487;-85
2021/08/22 07:00:39;;;;;;;19.60;15.30;;;;;;;18.29;76.68;98675.71;112731;1199;25066;-85
2021/08/22 07:03:19;;;;;;;19.60;14.70;;;;;;;18.37;76.34;98675.18;112802;1206;22468;-85
2021/08/22 07:06:00;;;;;;;20.10;16.10;;;;;;;18.45;75.63;98672.46;112690;1212;22534;-86
2021/08/22 07:08:27;;;;;;;20.50;15.70;;;;;;;18.56;75.60;98668.65;112695;1205;22466;-85
2021/08/22 07:10:54;;;;;;;22.90;16.30;;;;;;;18.66;75.33;98668.81;112694;1205;23781;-85
2021/08/22 07:13:21;;;;;;;21.80;16.40;;;;;;;18.72;74.75;98669.68;112634;1205;22450;-86
2021/08/22 07:16:02;;;;;;;22.50;16.10;;;;;;;18.77;74.57;98673.54;112691;1205;22500;-86
2021/08/22 07:18:29;;;;;;;19.10;15.70;;;;;;;18.82;74.01;98674.55;112780;1206;25150;-86
2021/08/22 07:20:56;;;;;;;20.00;15.20;;;;;;;18.89;74.06;98675.36;112664;1206;22476;-85
2021/08/22 07:23:23;;;;;;;17.40;13.30;;;;;;;18.98;73.74;98675.81;112612;1205;23075;-86
2021/08/22 07:25:51;;;;;;;21.40;15.50;;;;;;;19.06;73.83;98676.58;112689;1205;24212;-86
2021/08/22 07:28:18;;;;;;;20.10;14.00;;;;;;;19.17;73.19;98672.65;112576;1212;24170;-86
2021/08/22 07:30:46;;;;;;;16.20;12.60;;;;;;;19.28;72.88;98673.60;112521;1200;24071;-86
2021/08/22 07:33:27;;;;;;;16.00;13.20;;;;;;;19.39;72.41;98678.81;112499;1205;22463;-86
2021/08/22 07:35:55;;;;;;;17.40;12.50;;;;;;;19.46;72.31;98673.66;112538;1205;22463;-87
2021/08/22 07:38:22;;;;;;;15.00;11.40;;;;;;;19.55;71.39;98678.08;112599;1206;24086;-87
2021/08/22 07:40:49;;;;;;;14.60;12.20;;;;;;;19.62;71.37;98683.45;112520;1205;23825;-87
2021/08/22 07:43:17;;;;;;;15.20;12.40;;;;;;;19.69;71.14;98679.75;112500;1206;24070;-87
2021/08/22 07:45:44;;;;;;;16.60;12.50;;;;;;;19.78;70.43;98677.70;112502;1206;22443;-88
2021/08/22 07:48:11;;;;;;;17.40;13.00;;;;;;;19.88;69.74;98678.23;112445;1206;25253;-88
2021/08/22 07:50:38;;;;;;;14.70;11.30;;;;;;;19.99;69.92;98675.49;112498;1207;24097;-87
2021/08/22 07:53:05;;;;;;;13.00;11.50;;;;;;;20.09;69.52;98674.23;112451;1206;22452;-88
2021/08/22 07:55:32;;;;;;;13.70;10.70;;;;;;;20.20;69.16;98673.48;112712;1205;22565;-83
2021/08/22 07:58:13;;;;;;;19.30;12.30;;;;;;;20.29;68.88;98673.27;112643;1205;24267;-81
2021/08/22 08:00:40;;;;;;;15.30;12.10;;;;;;;20.37;69.10;98674.06;112667;1206;22453;-83
2021/08/22 08:03:07;;;;;;;17.00;11.30;;;;;;;20.46;68.84;98679.27;112539;1206;22447;-83
2021/08/22 08:05:48;;;;;;;15.20;11.90;;;;;;;20.57;68.37;98685.92;112592;1205;22448;-85
2021/08/22 08:08:29;;;;;;;13.40;11.30;;;;;;;20.69;68.33;98681.96;112589;1212;22686;-85
2021/08/22 08:11:10;;;;;;;16.70;11.40;;;;;;;20.80;67.64;98673.83;112529;1205;25402;-85
2021/08/22 08:13:51;;;;;;;16.80;11.60;;;;;;;20.93;67.07;98675.58;112406;1205;22466;-85
2021/08/22 08:16:18;;;;;;;14.30;11.50;;;;;;;21.03;66.91;98672.31;112533;1205;22460;-85
2021/08/22 08:18:45;;;;;;;15.60;12.30;;;;;;;21.15;66.30;98674.90;112456;1207;24404;-89
2021/08/22 08:21:14;;;;;;;15.60;12.10;;;;;;;21.21;65.87;98675.69;112469;1206;24040;-84
2021/08/22 08:23:41;;;;;;;16.80;11.30;;;;;;;21.31;65.82;98675.20;112553;1205;24011;-85
2021/08/22 08:26:08;;;;;;;15.00;11.70;;;;;;;21.45;65.18;98670.88;112417;1206;25152;-87
2021/08/22 08:28:49;;;;;;;15.40;11.70;;;;;;;21.60;65.03;98670.48;112472;1206;23046;-85
2021/08/22 08:31:32;;;;;;;14.50;11.30;;;;;;;21.71;64.87;98666.80;112505;1210;24160;-86
2021/08/22 08:33:59;;;;;;;14.10;10.20;;;;;;;21.83;64.42;98670.12;113694;1205;23146;-85
2021/08/22 08:36:25;;;;;;;10.70;9.50;;;;;;;21.95;63.81;98670.60;113177;1205;24256;-85
2021/08/22 08:39:06;;;;;;;13.80;9.70;;;;;;;22.10;62.87;98667.99;113490;1205;23801;-85
2021/08/22 08:41:33;;;;;;;13.10;9.80;;;;;;;22.24;63.08;98672.42;112871;1205;22480;-86
2021/08/22 08:44:14;;;;;;;12.70;8.70;;;;;;;22.39;62.80;98671.53;112888;1206;22743;-85
2021/08/22 08:46:50;;;;;;;12.10;10.10;;;;;;;22.48;62.10;98669.17;112503;1205;24550;-86
2021/08/22 08:49:27;;;;;;;11.10;9.00;;;;;;;22.58;61.20;98668.80;112676;1206;22442;-86
2021/08/22 08:52:44;;;;;;;13.40;10.10;;;;;;;22.69;60.66;98671.48;112535;1205;22464;-85
2021/08/22 08:55:31;;;;;;;9.60;8.40;;;;;;;22.82;60.48;98668.56;112457;1210;24162;-85
2021/08/22 08:58:00;;;;;;;10.10;8.00;;;;;;;22.94;59.78;98668.35;112452;1205;22447;-85
2021/08/22 09:00:33;;;;;;;12.20;7.20;;;;;;;23.05;59.36;98671.30;112709;1206;22447;-85
2021/08/22 09:03:00;;;;;;;11.60;7.90;;;;;;;23.16;59.37;98670.62;112566;1205;22457;-85
2021/08/22 09:05:46;;;;;;;8.70;7.80;;;;;;;23.25;59.25;98668.67;112417;1205;22414;-85
2021/08/22 09:08:50;;;;;;;10.70;7.80;;;;;;;23.39;59.18;98665.65;112608;1205;25168;-86
2021/08/22 09:12:03;;;;;;;8.20;6.50;;;;;;;23.51;58.30;98659.56;113598;1204;25287;-86
2021/08/22 09:15:08;;;;;;;7.50;6.70;;;;;;;23.60;58.05;98651.66;113032;1209;22442;-84
2021/08/22 09:18:00;;;;;;;6.90;6.20;;;;;;;23.76;58.16;98651.36;113239;1204;23067;-84
2021/08/22 09:21:08;;;;;;;7.50;6.70;;;;;;;23.91;56.55;98648.45;113282;1206;23499;-85
2021/08/22 09:24:13;;;;;;;8.10;7.30;;;;;;;24.07;57.11;98646.77;112878;1204;22494;-85
2021/08/22 09:26:43;;;;;;;7.70;6.90;;;;;;;24.23;57.42;98640.98;112875;1205;23139;-85
2021/08/22 09:30:02;;;;;;;8.40;7.60;;;;;;;24.37;56.52;98643.33;112850;1205;22461;-85
2021/08/22 09:33:06;;;;;;;6.90;6.20;;;;;;;24.51;55.75;98643.70;112879;1206;25040;-85
2021/08/22 09:36:01;;;;;;;7.20;6.40;;;;;;;24.64;55.75;98645.60;113350;1205;22952;-84
2021/08/22 09:39:06;;;;;;;7.00;6.40;;;;;;;24.79;54.98;98646.87;113087;1205;22474;-86
2021/08/22 09:41:57;;;;;;;7.90;6.40;;;;;;;24.94;54.55;98652.30;113196;1205;25076;-86
2021/08/22 09:44:44;;;;;;;6.60;5.80;;;;;;;25.12;54.58;98645.48;112948;1204;24069;-86
2021/08/22 09:48:03;;;;;;;7.00;6.30;;;;;;;25.26;53.88;98646.33;112913;1204;25188;-86
2021/08/22 09:50:54;;;;;;;6.70;5.60;;;;;;;25.41;53.21;98650.66;113049;1205;24091;-84
2021/08/22 09:53:54;;;;;;;7.00;5.90;;;;;;;25.52;52.16;98654.33;112871;1207;22473;-87
2021/08/22 09:56:40;;;;;;;;;;;;;;;25.62;50.61;98651.60;113068;1204;22499;-85
2021/08/22 09:59:19;;;;;;;6.40;5.10;;;;;;;25.71;49.45;98645.94;113041;1204;22564;-85
2021/08/22 10:02:11;;;;;;;5.90;5.40;;;;;;;25.73;47.54;98642.09;113433;1204;22456;-85
2021/08/22 10:04:50;;;;;;;6.30;5.40;;;;;;;25.80;48.56;98639.00;113080;1204;25326;-85
2021/08/22 10:07:40;;;;;;;7.10;5.40;;;;;;;25.96;49.52;98629.73;113075;1204;22881;-86
2021/08/22 10:10:18;;;;;;;6.10;5.20;;;;;;;26.04;49.64;98631.23;112893;1206;22469;-85
2021/08/22 10:12:45;;;;;;;5.40;4.70;;;;;;;26.07;49.32;98625.52;113067;1204;22443;-85
2021/08/22 10:15:17;;;;;;;6.10;5.50;;;;;;;26.17;48.22;98623.63;112958;1204;22714;-85
2021/08/22 10:17:48;;;;;;;5.10;4.70;;;;;;;26.22;48.60;98619.58;112888;1204;25179;-84
2021/08/22 10:20:17;;;;;;;5.50;5.00;;;;;;;26.33;48.72;98615.64;113117;1207;22462;-85
2021/08/22 10:22:48;;;;;;;4.90;4.50;;;;;;;26.47;47.58;98614.52;112975;1205;22467;-86
2021/08/22 10:25:20;;;;;;;5.90;5.20;;;;;;;26.58;46.07;98609.86;113074;1205;22449;-85
2021/08/22 10:27:57;;;;;;;4.40;3.90;;;;;;;26.71;46.03;98607.05;112936;1204;22455;-85
2021/08/22 10:30:25;;;;;;;4.40;4.00;;;;;;;26.79;44.28;98611.79;113067;1205;22447;-85
2021/08/22 10:32:58;;;;;;;5.70;4.60;;;;;;;26.86;45.02;98609.95;112918;1204;22461;-86
2021/08/22 10:35:26;;;;;;;5.50;4.80;;;;;;;26.96;44.56;98608.20;112909;1206;22484;-85
2021/08/22 10:38:30;;;;;;;5.40;4.80;;;;;;;27.10;44.85;98605.10;112880;1205;25302;-86
2021/08/22 10:41:34;;;;;;;4.60;4.20;;;;;;;27.25;45.08;98604.35;112957;1205;22545;-85
2021/08/22 10:44:40;;;;;;;5.10;4.60;;;;;;;27.40;43.65;98600.86;112661;1204;25340;-86
2021/08/22 10:47:34;;;;;;;5.30;4.10;;;;;;;27.50;41.35;98602.75;112801;1205;22955;-86
2021/08/22 10:50:02;;;;;;;4.20;3.80;;;;;;;27.51;41.32;98597.41;112776;1205;22479;-84
2021/08/22 10:52:45;;;;;;;6.30;3.70;;;;;;;27.57;40.42;98598.71;112704;1206;22456;-85
2021/08/22 10:55:12;;;;;;;4.70;4.00;;;;;;;27.65;41.49;98593.34;112907;1205;25075;-86
2021/08/22 10:57:42;;;;;;;5.40;4.60;;;;;;;27.72;43.09;98594.34;112726;1204;22483;-86
2021/08/22 11:00:25;;;;;;;5.40;4.40;;;;;;;27.79;43.06;98594.23;113065;1204;22458;-86
2021/08/22 11:03:05;;;;;;;5.10;4.60;;;;;;;27.84;42.83;98597.08;112916;1206;22566;-86
2021/08/22 11:05:37;;;;;;;5.10;4.50;;;;;;;27.91;42.81;98596.26;113089;1204;24062;-87
2021/08/22 11:08:18;;;;;;;5.80;5.00;;;;;;;27.97;40.34;98596.02;112775;1207;24991;-85
2021/08/22 11:10:59;;;;;;;4.80;4.00;;;;;;;28.01;39.99;98594.39;112713;1197;25207;-83
2021/08/22 11:13:28;;;;;;;5.70;4.40;;;;;;;27.93;39.04;98595.27;112799;1207;22489;-86
2021/08/22 11:15:55;;;;;;;5.20;4.50;;;;;;;27.86;39.50;98595.60;112863;1204;22459;-86
2021/08/22 11:18:22;;;;;;;4.70;4.30;;;;;;;27.96;40.19;98596.06;112728;1204;22450;-86
2021/08/22 11:21:04;;;;;;;4.80;4.40;;;;;;;28.02;41.16;98597.30;112847;1205;23162;-86
2021/08/22 11:23:31;;;;;;;;;;;;;;;27.92;42.31;98595.54;112921;1206;22433;-85
2021/08/22 11:26:12;;;;;;;4.90;4.30;;;;;;;27.74;42.72;98596.08;112722;1207;25080;-86
2021/08/22 11:28:39;;;;;;;5.60;4.40;;;;;;;27.70;41.88;98594.60;112809;1206;23596;-86
2021/08/22 11:31:20;;;;;;;5.40;4.90;;;;;;;27.66;40.82;98590.51;112655;1204;22464;-86
2021/08/22 11:33:47;;;;;;;4.60;4.00;;;;;;;27.77;41.69;98593.11;112447;1206;22566;-86
2021/08/22 11:36:14;;;;;;;7.00;4.80;;;;;;;27.92;42.18;98593.16;112552;1205;24096;-85
2021/08/22 11:38:41;;;;;;;5.10;4.60;;;;;;;27.99;41.09;98594.09;112786;1204;25080;-86
2021/08/22 11:41:10;;;;;;;5.70;4.70;;;;;;;28.05;41.56;98592.90;113134;1206;22369;-87
2021/08/22 11:43:55;;;;;;;4.80;3.60;;;;;;;27.98;41.10;98589.41;113162;1204;22465;-87
2021/08/22 11:46:36;;;;;;;3.80;3.50;;;;;;;27.97;41.61;98597.79;112931;1204;22691;-87
2021/08/22 11:49:03;;;;;;;5.60;3.90;;;;;;;28.08;39.61;98595.77;112690;1204;23738;-87
2021/08/22 11:51:50;;;;;;;3.60;3.30;;;;;;;28.09;39.03;98595.16;112816;1206;25045;-86
2021/08/22 11:54:19;;;;;;;6.00;3.20;;;;;;;28.18;38.21;98594.11;113209;1204;23247;-84